createdAt,value
2022-09-15T00:01:41.150Z,23.45
2022-09-15T00:04:10.081Z,26.77
2022-09-15T00:06:38.286Z,33.33
2022-09-15T00:09:06.682Z,29.17
2022-09-15T00:11:37.542Z,28.52
2022-09-15T00:14:08.091Z,31.95
2022-09-15T00:16:36.855Z,30.10
2022-09-15T00:19:07.558Z,29.48
2022-09-15T00:21:38.233Z,28.25
2022-09-15T00:24:07.184Z,26.73
2022-09-15T00:26:35.146Z,25.33
2022-09-15T00:29:03.594Z,22.10
2022-09-15T00:31:36.114Z,19.83
2022-09-15T00:34:05.796Z,25.50
2022-09-15T00:36:34.469Z,25.52
2022-09-15T00:39:03.714Z,25.67
2022-09-15T00:41:32.010Z,23.30
2022-09-15T00:44:17.041Z,24.85
2022-09-15T00:46:58.917Z,21.83
2022-09-15T00:49:40.309Z,22.23
2022-09-15T00:52:11.165Z,26.38
2022-09-15T00:54:42.561Z,22.55
2022-09-15T00:57:20.909Z,22.17
2022-09-15T00:59:50.238Z,25.42
2022-09-15T01:02:27.730Z,25.48
2022-09-15T01:04:59.061Z,24.65
2022-09-15T01:07:35.249Z,24.60
2022-09-15T01:10:12.936Z,27.35
2022-09-15T01:12:42.264Z,21.02
2022-09-15T01:15:10.315Z,24.45
2022-09-15T01:17:52.763Z,22.50
2022-09-15T01:20:48.335Z,24.83
2022-09-15T01:23:41.167Z,24.70
2022-09-15T01:26:25.358Z,27.00
2022-09-15T01:29:35.322Z,25.02
2022-09-15T01:32:47.973Z,24.90
2022-09-15T01:35:29.609Z,27.23
2022-09-15T01:38:05.874Z,23.40
2022-09-15T01:40:40.380Z,23.73
2022-09-15T01:43:10.894Z,26.75
2022-09-15T01:45:43.109Z,27.90
2022-09-15T01:48:13.037Z,39.47
2022-09-15T01:50:48.055Z,33.63
2022-09-15T01:53:21.891Z,28.27
2022-09-15T01:56:01.692Z,26.83
2022-09-15T01:58:31.136Z,30.25
2022-09-15T02:01:06.950Z,30.50
2022-09-15T02:03:52.555Z,29.38
2022-09-15T02:06:55.231Z,29.02
2022-09-15T02:09:32.207Z,26.30
2022-09-15T02:12:20.210Z,29.10
2022-09-15T02:15:04.125Z,30.13
2022-09-15T02:17:39.500Z,24.52
2022-09-15T02:20:27.092Z,29.33
2022-09-15T02:23:01.460Z,30.85
2022-09-15T02:25:34.570Z,33.22
2022-09-15T02:28:08.647Z,45.70
2022-09-15T02:30:43.775Z,37.80
2022-09-15T02:33:20.526Z,31.95
2022-09-15T02:35:48.610Z,27.33
2022-09-15T02:38:16.707Z,32.35
2022-09-15T02:40:45.843Z,27.52
2022-09-15T02:43:16.531Z,30.13
2022-09-15T02:45:45.271Z,26.13
2022-09-15T02:48:14.685Z,27.23
2022-09-15T02:50:42.900Z,28.50
2022-09-15T02:53:10.913Z,46.05
2022-09-15T02:55:40.775Z,38.95
2022-09-15T03:00:39.393Z,97.53
2022-09-15T03:03:07.529Z,95.57
2022-09-15T03:05:35.464Z,83.82
2022-09-15T03:08:03.582Z,63.67
2022-09-15T03:10:34.324Z,51.05
2022-09-15T03:13:02.305Z,44.40
2022-09-15T03:15:30.409Z,29.52
2022-09-15T03:17:59.409Z,29.88
2022-09-15T03:20:31.089Z,29.07
2022-09-15T03:22:59.302Z,31.85
2022-09-15T03:25:27.895Z,47.22
2022-09-15T03:27:55.930Z,46.60
2022-09-15T03:30:23.926Z,37.75
2022-09-15T03:32:52.195Z,31.70
2022-09-15T03:35:20.174Z,28.15
2022-09-15T03:37:48.108Z,31.10
2022-09-15T03:40:17.064Z,28.98
2022-09-15T03:42:45.119Z,33.27
2022-09-15T03:45:13.115Z,25.50
2022-09-15T03:47:41.230Z,30.92
2022-09-15T03:50:09.561Z,25.92
2022-09-15T03:52:37.660Z,17.73
2022-09-15T03:55:06.130Z,17.10
2022-09-15T03:57:34.064Z,23.05
2022-09-15T04:00:02.053Z,20.88
2022-09-15T04:02:33.796Z,22.90
2022-09-15T04:05:01.793Z,19.00
2022-09-15T04:07:32.027Z,25.92
2022-09-15T04:10:01.814Z,20.55
2022-09-15T04:12:33.313Z,30.90
2022-09-15T04:15:01.670Z,20.13
2022-09-15T04:20:00.034Z,19.83
2022-09-15T04:22:32.690Z,19.83
2022-09-15T04:25:01.854Z,27.92
2022-09-15T04:27:35.067Z,20.02
2022-09-15T04:30:03.167Z,21.08
2022-09-15T04:32:32.398Z,18.87
2022-09-15T04:35:00.330Z,19.23
2022-09-15T04:37:47.615Z,15.23
2022-09-15T04:40:15.782Z,16.60
2022-09-15T04:42:43.859Z,17.38
2022-09-15T04:45:12.413Z,11.95
2022-09-15T04:47:40.377Z,9.25
2022-09-15T04:50:08.581Z,12.43
2022-09-15T04:52:39.969Z,10.15
2022-09-15T04:55:08.253Z,7.90
2022-09-15T04:57:36.280Z,10.88
2022-09-15T05:00:10.878Z,9.82
2022-09-15T05:02:38.860Z,8.20
2022-09-15T05:05:07.182Z,9.38
2022-09-15T05:07:37.901Z,12.48
2022-09-15T05:10:06.363Z,14.85
2022-09-15T05:12:34.349Z,17.85
2022-09-15T05:15:02.390Z,21.05
2022-09-15T05:17:33.121Z,19.38
2022-09-15T05:20:01.977Z,14.77
2022-09-15T05:22:37.210Z,6.55
2022-09-15T05:25:07.860Z,8.45
2022-09-15T05:27:35.875Z,11.80
2022-09-15T05:30:34.996Z,15.13
2022-09-15T05:32:52.170Z,12.90
2022-09-15T05:35:22.164Z,15.02
2022-09-15T05:40:18.365Z,9.05
2022-09-15T05:42:48.987Z,10.15
2022-09-15T05:45:17.280Z,8.32
2022-09-15T05:47:45.311Z,8.63
2022-09-15T05:50:14.400Z,12.50
2022-09-15T05:52:42.543Z,8.43
2022-09-15T05:55:10.698Z,8.05
2022-09-15T05:57:39.836Z,8.00
2022-09-15T06:00:08.461Z,8.38
2022-09-15T06:02:36.422Z,6.57
2022-09-15T06:05:04.642Z,6.85
2022-09-15T06:07:32.657Z,5.07
2022-09-15T06:10:00.812Z,8.15
2022-09-15T06:12:32.045Z,6.18
2022-09-15T06:15:00.480Z,6.93
2022-09-15T06:17:29.618Z,4.95
2022-09-15T06:20:17.864Z,3.40
2022-09-15T06:22:47.040Z,7.32
2022-09-15T06:25:15.489Z,14.20
2022-09-15T06:27:43.652Z,11.80
2022-09-15T06:30:12.277Z,8.65
2022-09-15T06:32:40.185Z,8.48
2022-09-15T06:35:09.463Z,11.02
2022-09-15T06:37:37.449Z,9.70
2022-09-15T06:40:05.795Z,11.07
2022-09-15T06:42:33.978Z,6.95
2022-09-15T06:45:02.018Z,5.38
2022-09-15T06:47:34.430Z,3.45
2022-09-15T06:50:02.620Z,7.10
2022-09-15T06:52:31.834Z,6.82
2022-09-15T06:54:59.836Z,6.88
2022-09-15T06:57:28.142Z,8.13
2022-09-15T06:59:56.019Z,4.20
2022-09-15T07:02:24.123Z,7.40
2022-09-15T07:04:52.364Z,8.02
2022-09-15T07:07:20.981Z,4.75
2022-09-15T07:10:08.369Z,5.32
2022-09-15T07:12:36.314Z,4.45
2022-09-15T07:15:04.513Z,4.63
2022-09-15T07:17:32.762Z,3.97
2022-09-15T07:20:01.741Z,10.02
2022-09-15T07:22:32.233Z,4.55
2022-09-15T07:25:01.494Z,4.18
2022-09-15T07:27:32.500Z,3.17
2022-09-15T07:30:00.598Z,5.68
2022-09-15T07:32:28.760Z,4.70
2022-09-15T07:34:58.501Z,3.00
2022-09-15T07:39:56.980Z,3.33
2022-09-15T07:42:26.597Z,3.33
2022-09-15T07:44:54.556Z,3.55
2022-09-15T07:47:22.673Z,2.33
2022-09-15T07:49:50.964Z,1.88
2022-09-15T07:52:18.892Z,4.00
2022-09-15T07:54:47.903Z,2.10
2022-09-15T07:57:15.887Z,3.53
2022-09-15T07:59:43.833Z,2.10
2022-09-15T08:02:20.968Z,4.03
2022-09-15T08:04:49.105Z,4.38
2022-09-15T08:07:17.161Z,4.18
2022-09-15T08:09:45.533Z,2.83
2022-09-15T08:12:13.529Z,3.13
2022-09-15T08:14:41.552Z,2.85
2022-09-15T08:17:11.630Z,3.22
2022-09-15T08:19:39.935Z,3.80
2022-09-15T08:22:08.043Z,4.57
2022-09-15T08:24:39.025Z,5.78
2022-09-15T08:27:07.424Z,2.95
2022-09-15T08:29:35.420Z,3.88
2022-09-15T08:32:04.823Z,5.10
2022-09-15T08:34:32.860Z,23.85
2022-09-15T08:37:00.848Z,23.17
2022-09-15T08:39:31.253Z,13.60
2022-09-15T08:42:02.839Z,28.67
2022-09-15T08:44:45.811Z,43.13
2022-09-15T08:47:37.609Z,20.92
2022-09-15T08:50:36.250Z,17.00
2022-09-15T08:53:13.636Z,18.92
2022-09-15T08:55:54.906Z,23.17
2022-09-15T08:58:29.444Z,20.67
2022-09-15T09:01:05.889Z,18.83
2022-09-15T09:03:49.198Z,19.70
2022-09-15T09:06:29.601Z,19.73
2022-09-15T09:09:10.751Z,16.80
2022-09-15T09:11:54.496Z,20.75
2022-09-15T09:14:52.485Z,15.02
2022-09-15T09:17:37.187Z,16.30
2022-09-15T09:20:22.774Z,17.30
2022-09-15T09:22:55.188Z,17.13
2022-09-15T09:25:28.120Z,13.90
2022-09-15T09:28:03.018Z,14.60
2022-09-15T09:30:34.034Z,17.67
2022-09-15T09:33:38.678Z,15.07
2022-09-15T09:36:09.637Z,13.77
2022-09-15T09:38:43.846Z,13.90
2022-09-15T09:41:28.712Z,12.15
2022-09-15T09:43:57.164Z,13.82
2022-09-15T09:46:25.249Z,12.98
2022-09-15T09:49:24.533Z,10.18
2022-09-15T09:52:00.533Z,11.65
2022-09-15T09:54:35.902Z,11.75
2022-09-15T09:57:30.358Z,14.57
2022-09-15T09:59:58.842Z,13.75
2022-09-15T10:02:28.145Z,11.95
2022-09-15T10:05:09.116Z,10.70
2022-09-15T10:07:44.639Z,12.23
2022-09-15T10:10:26.018Z,10.45
2022-09-15T10:12:57.664Z,10.30
2022-09-15T10:15:34.087Z,9.15
2022-09-15T10:18:22.698Z,6.22
2022-09-15T10:20:53.443Z,11.27
2022-09-15T10:23:24.624Z,7.78
2022-09-15T10:26:00.673Z,7.03
2022-09-15T10:28:29.568Z,9.30
2022-09-15T10:31:14.957Z,9.73
2022-09-15T10:33:48.295Z,8.18
2022-09-15T10:36:24.490Z,7.45
2022-09-15T10:38:55.439Z,7.60
2022-09-15T10:41:37.094Z,7.45
2022-09-15T10:44:33.764Z,10.50
2022-09-15T10:47:37.698Z,6.78
2022-09-15T10:50:17.923Z,8.07
2022-09-15T10:52:57.859Z,7.35
2022-09-15T10:58:52.116Z,7.78
2022-09-15T11:01:32.654Z,7.97
2022-09-15T11:04:28.924Z,5.63
2022-09-15T11:07:23.951Z,7.20
2022-09-15T11:10:03.962Z,7.47
2022-09-15T11:12:46.653Z,7.90
2022-09-15T11:15:29.419Z,12.43
2022-09-15T11:18:20.851Z,8.90
2022-09-15T11:21:34.880Z,8.38
2022-09-15T11:24:27.717Z,6.43
2022-09-15T11:27:15.653Z,6.82
2022-09-15T11:30:01.823Z,10.70
2022-09-15T11:32:44.865Z,8.60
2022-09-15T11:35:43.114Z,9.18
2022-09-15T11:38:16.243Z,11.88
2022-09-15T11:41:02.702Z,11.70
2022-09-15T11:43:40.347Z,7.00
2022-09-15T11:46:14.477Z,7.03
2022-09-15T11:48:53.308Z,7.13
2022-09-15T11:51:25.502Z,7.50
2022-09-15T11:54:04.562Z,12.10
2022-09-15T11:56:44.763Z,9.60
2022-09-15T11:59:37.471Z,10.90
2022-09-15T12:02:44.699Z,18.80
2022-09-15T12:05:17.437Z,11.20
2022-09-15T12:07:56.549Z,11.52
2022-09-15T12:10:35.396Z,9.40
2022-09-15T12:13:04.320Z,16.23
2022-09-15T12:15:33.137Z,21.23
2022-09-15T12:18:41.002Z,14.52
2022-09-15T12:21:17.416Z,13.00
2022-09-15T12:24:12.757Z,13.05
2022-09-15T12:26:43.860Z,23.45
2022-09-15T12:30:02.912Z,19.13
2022-09-15T12:32:49.643Z,14.65
2022-09-15T12:35:22.233Z,16.45
2022-09-15T12:37:59.071Z,25.67
2022-09-15T12:40:40.089Z,22.08
2022-09-15T12:43:14.260Z,71.85
2022-09-15T12:45:45.303Z,100.20
2022-09-15T12:48:23.439Z,91.60
2022-09-15T12:50:59.495Z,28.33
2022-09-15T12:53:40.847Z,56.95
2022-09-15T12:56:25.323Z,53.83
2022-09-15T12:58:57.125Z,38.35
2022-09-15T13:01:25.178Z,41.67
2022-09-15T13:03:58.516Z,46.90
2022-09-15T13:06:27.715Z,35.45
2022-09-15T13:09:06.222Z,35.97
2022-09-15T13:11:55.608Z,36.30
2022-09-15T13:14:42.615Z,38.55
2022-09-15T13:17:26.899Z,39.92
2022-09-15T13:20:00.667Z,34.60
2022-09-15T13:22:38.248Z,35.95
2022-09-15T13:25:14.324Z,25.10
2022-09-15T13:27:56.138Z,25.05
2022-09-15T13:30:41.617Z,33.30
2022-09-15T13:38:03.773Z,31.52
2022-09-15T13:40:01.630Z,28.70
2022-09-15T13:43:03.992Z,27.17
2022-09-15T13:45:32.119Z,25.75
2022-09-15T13:48:00.141Z,30.10
2022-09-15T13:50:34.446Z,28.75
2022-09-15T13:53:27.974Z,26.27
2022-09-15T13:55:56.595Z,22.70
2022-09-15T14:01:16.834Z,42.97
2022-09-15T14:06:34.283Z,44.72
2022-09-15T14:09:08.522Z,34.53
2022-09-15T14:11:40.513Z,45.97
2022-09-15T14:14:22.383Z,54.17
2022-09-15T14:16:51.770Z,39.78
2022-09-15T14:19:35.353Z,40.13
2022-09-15T14:22:35.099Z,38.78
2022-09-15T14:25:12.409Z,31.85
2022-09-15T14:27:56.839Z,40.78
2022-09-15T14:30:31.785Z,28.13
2022-09-15T14:33:04.257Z,33.47
2022-09-15T14:35:37.671Z,29.20
2022-09-15T14:38:06.098Z,24.02
2022-09-15T14:40:40.120Z,19.00
2022-09-15T14:43:28.039Z,21.35
2022-09-15T14:46:05.157Z,24.05
2022-09-15T14:48:36.801Z,27.42
2022-09-15T14:54:28.958Z,24.85
2022-09-15T14:57:04.768Z,30.98
2022-09-15T14:59:57.894Z,37.78
2022-09-15T15:02:58.101Z,40.90
2022-09-15T15:05:34.845Z,32.80
2022-09-15T15:08:07.170Z,41.13
2022-09-15T15:10:38.764Z,51.15
2022-09-15T15:13:16.186Z,47.63
2022-09-15T15:15:45.672Z,53.70
2022-09-15T15:18:32.405Z,46.40
2022-09-15T15:21:00.649Z,45.28
2022-09-15T15:23:28.853Z,44.65
2022-09-15T15:26:40.704Z,33.17
2022-09-15T15:29:30.004Z,38.60
2022-09-15T15:32:14.078Z,40.30
2022-09-15T15:34:50.462Z,36.88
2022-09-15T15:37:34.913Z,29.25
2022-09-15T15:40:08.087Z,27.17
2022-09-15T15:45:25.808Z,30.02
2022-09-15T15:47:53.875Z,26.27
2022-09-15T15:50:25.128Z,32.78
2022-09-15T15:52:54.036Z,29.05
2022-09-15T15:55:25.208Z,25.83
2022-09-15T15:57:56.747Z,24.00
2022-09-15T16:00:31.362Z,20.58
2022-09-15T16:02:59.337Z,23.50
2022-09-15T16:05:29.864Z,23.55
2022-09-15T16:08:03.425Z,20.05
2022-09-15T16:10:39.700Z,24.67
2022-09-15T16:13:08.292Z,19.30
2022-09-15T16:15:36.314Z,17.15
2022-09-15T16:18:06.689Z,20.65
2022-09-15T16:20:34.916Z,23.73
2022-09-15T16:23:03.639Z,20.35
2022-09-15T16:25:42.239Z,22.02
2022-09-15T16:28:10.287Z,20.08
2022-09-15T16:30:38.371Z,22.92
2022-09-15T16:33:08.035Z,17.45
2022-09-15T16:36:08.935Z,17.38
2022-09-15T16:38:40.031Z,14.73
2022-09-15T16:41:19.758Z,16.98
2022-09-15T16:43:48.250Z,19.90
2022-09-15T16:46:17.954Z,22.33
2022-09-15T16:48:59.183Z,16.80
2022-09-15T16:51:31.432Z,13.50
2022-09-15T16:54:00.169Z,14.88
2022-09-15T16:56:30.463Z,15.27
2022-09-15T16:59:00.583Z,17.58
2022-09-15T17:01:29.190Z,11.65
2022-09-15T17:03:57.309Z,16.38
2022-09-15T17:06:25.988Z,14.07
2022-09-15T17:08:54.269Z,20.58
2022-09-15T17:11:25.967Z,14.70
2022-09-15T17:13:54.334Z,18.13
2022-09-15T17:16:22.642Z,21.13
2022-09-15T17:18:51.671Z,18.85
2022-09-15T17:21:20.326Z,18.27
2022-09-15T17:23:50.444Z,18.35
2022-09-15T17:26:21.599Z,21.65
2022-09-15T17:28:50.017Z,25.15
2022-09-15T17:31:24.253Z,21.80
2022-09-15T17:33:53.133Z,20.35
2022-09-15T17:36:21.337Z,23.00
2022-09-15T17:38:49.432Z,26.35
2022-09-15T17:41:20.209Z,26.98
2022-09-15T17:43:48.377Z,26.55
2022-09-15T17:46:16.648Z,21.33
2022-09-15T17:48:44.940Z,18.02
2022-09-15T17:51:20.050Z,17.13
2022-09-15T17:53:49.896Z,19.30
2022-09-15T17:58:45.632Z,23.67
2022-09-15T18:01:15.806Z,27.50
2022-09-15T18:03:45.575Z,23.20
2022-09-15T18:06:13.930Z,28.08
2022-09-15T18:08:42.216Z,27.73
2022-09-15T18:11:15.046Z,31.92
2022-09-15T18:13:43.755Z,35.60
2022-09-15T18:16:15.016Z,29.23
2022-09-15T18:18:43.623Z,31.77
2022-09-15T18:21:27.075Z,22.30
2022-09-15T18:23:56.821Z,24.08
2022-09-15T18:26:26.606Z,22.50
2022-09-15T18:28:55.458Z,27.08
2022-09-15T18:31:23.525Z,19.02
2022-09-15T18:33:51.561Z,18.70
2022-09-15T18:36:21.268Z,24.80
2022-09-15T18:38:49.228Z,25.85
2022-09-15T18:41:17.238Z,26.80
2022-09-15T18:43:49.574Z,34.28
2022-09-15T18:46:18.660Z,30.48
2022-09-15T18:48:47.245Z,19.60
2022-09-15T18:51:23.975Z,30.77
2022-09-15T18:53:58.059Z,32.25
2022-09-15T18:56:26.266Z,30.70
2022-09-15T18:59:34.496Z,24.30
2022-09-15T19:02:02.691Z,18.23
2022-09-15T19:04:33.342Z,24.45
2022-09-15T19:07:03.073Z,22.00
2022-09-15T19:09:31.584Z,28.10
2022-09-15T19:11:59.560Z,25.63
2022-09-15T19:14:32.070Z,23.48
2022-09-15T19:17:00.396Z,30.30
2022-09-15T19:19:28.423Z,23.48
2022-09-15T19:21:59.028Z,27.10
2022-09-15T19:24:32.857Z,26.13
2022-09-15T19:27:06.569Z,18.05
2022-09-15T19:30:35.344Z,17.90
2022-09-15T19:33:03.778Z,18.70
2022-09-15T19:35:31.794Z,21.17
2022-09-15T19:38:00.935Z,30.30
2022-09-15T19:40:29.063Z,31.95
2022-09-15T19:42:57.238Z,26.95
2022-09-15T19:45:27.073Z,24.35
2022-09-15T19:47:55.077Z,28.40
2022-09-15T19:50:23.120Z,30.42
2022-09-15T19:52:54.234Z,30.48
2022-09-15T19:55:24.705Z,30.23
2022-09-15T19:57:52.690Z,26.08
2022-09-15T20:00:20.828Z,24.55
2022-09-15T20:02:49.239Z,29.33
2022-09-15T20:05:17.286Z,29.05
2022-09-15T20:07:47.645Z,34.70
2022-09-15T20:10:17.121Z,26.55
2022-09-15T20:12:45.131Z,32.17
2022-09-15T20:15:14.112Z,33.38
2022-09-15T20:17:43.106Z,35.33
2022-09-15T20:20:12.480Z,30.85
2022-09-15T20:22:42.333Z,28.02
2022-09-15T20:25:10.307Z,31.33
2022-09-15T20:27:39.025Z,34.53
2022-09-15T20:30:07.716Z,32.50
2022-09-15T20:32:35.922Z,30.48
2022-09-15T20:35:03.900Z,31.98
2022-09-15T20:37:37.279Z,31.42
2022-09-15T20:40:08.949Z,24.13
2022-09-15T20:42:37.535Z,28.88
2022-09-15T20:45:06.101Z,34.28
2022-09-15T20:47:34.541Z,24.95
2022-09-15T20:50:02.491Z,23.63
2022-09-15T20:52:37.396Z,44.08
2022-09-15T20:55:06.707Z,40.28
2022-09-15T20:57:34.815Z,45.22
2022-09-15T21:00:06.976Z,37.50
2022-09-15T21:02:34.741Z,34.33
2022-09-15T21:05:02.699Z,42.88
2022-09-15T21:07:33.058Z,30.05
2022-09-15T21:10:00.984Z,34.38
2022-09-15T21:12:29.069Z,28.20
2022-09-15T21:14:58.535Z,25.52
2022-09-15T21:17:26.514Z,27.58
2022-09-15T21:19:54.451Z,25.50
2022-09-15T21:22:23.713Z,22.20
2022-09-15T21:24:51.852Z,26.45
2022-09-15T21:27:29.878Z,37.90
2022-09-15T21:29:58.089Z,27.58
2022-09-15T21:32:26.123Z,26.33
2022-09-15T21:34:59.168Z,25.35
2022-09-15T21:37:28.656Z,24.52
2022-09-15T21:39:57.532Z,35.00
2022-09-15T21:42:27.571Z,22.40
2022-09-15T21:44:56.306Z,20.75
2022-09-15T21:47:24.550Z,23.17
2022-09-15T21:49:54.121Z,26.85
2022-09-15T21:54:50.239Z,21.67
2022-09-15T21:57:18.619Z,28.42
2022-09-15T21:59:46.602Z,27.38
2022-09-15T22:02:14.544Z,30.08
2022-09-15T22:04:42.696Z,29.50
2022-09-15T22:07:10.775Z,25.77
2022-09-15T22:09:39.572Z,31.73
2022-09-15T22:12:09.088Z,23.83
2022-09-15T22:14:37.052Z,24.30
2022-09-15T22:17:05.057Z,23.33
2022-09-15T22:19:35.776Z,26.95
2022-09-15T22:22:03.822Z,27.13
2022-09-15T22:24:31.820Z,27.25
2022-09-15T22:27:00.808Z,23.75
2022-09-15T22:29:28.790Z,20.80
2022-09-15T22:31:56.821Z,20.00
2022-09-15T22:34:25.958Z,23.98
2022-09-15T22:36:53.945Z,19.90
2022-09-15T22:39:27.024Z,21.85
2022-09-15T22:42:08.011Z,17.75
2022-09-15T22:44:36.062Z,20.08
2022-09-15T22:47:06.873Z,21.15
2022-09-15T22:49:34.985Z,20.00
2022-09-15T22:52:03.201Z,18.52
2022-09-15T22:57:18.046Z,16.98
2022-09-15T23:02:13.721Z,20.05
2022-09-15T23:04:41.900Z,23.05
2022-09-15T23:07:10.055Z,19.95
2022-09-15T23:09:38.041Z,21.95
2022-09-15T23:12:12.353Z,23.13
2022-09-15T23:14:40.329Z,22.25
2022-09-15T23:17:08.257Z,22.00
2022-09-15T23:19:36.420Z,26.60
2022-09-15T23:22:04.358Z,17.42
2022-09-15T23:24:33.661Z,23.65
2022-09-15T23:27:02.744Z,22.48
2022-09-15T23:29:31.752Z,19.75
2022-09-15T23:31:59.775Z,22.38
2022-09-15T23:34:30.005Z,27.33
2022-09-15T23:36:57.980Z,24.25
2022-09-15T23:39:25.953Z,18.75
2022-09-15T23:41:54.916Z,20.52
2022-09-15T23:44:22.904Z,20.27
2022-09-15T23:46:50.997Z,20.83
2022-09-15T23:49:37.345Z,21.27
2022-09-15T23:52:05.275Z,18.13
2022-09-15T23:54:33.248Z,20.08
2022-09-15T23:57:02.141Z,18.55
2022-09-15T23:59:30.116Z,19.38
